sensor_id;sensor_type;location;lat;lon;timestamp;P1;durP1;ratioP1;P2;durP2;ratioP2
27802;SDS011;15182;48.174;11.562;2024-03-06T00:01:36;10.17;;;9.20;;
27802;SDS011;15182;48.174;11.562;2024-03-06T00:04:05;14.20;;;10.13;;
27802;SDS011;15182;48.174;11.562;2024-03-06T00:06:33;10.13;;;8.93;;
27802;SDS011;15182;48.174;11.562;2024-03-06T00:09:02;10.57;;;9.47;;
27802;SDS011;15182;48.174;11.562;2024-03-06T00:11:30;10.20;;;9.20;;
27802;SDS011;15182;48.174;11.562;2024-03-06T00:13:58;10.27;;;9.17;;
27802;SDS011;15182;48.174;11.562;2024-03-06T00:16:26;13.20;;;9.20;;
27802;SDS011;15182;48.174;11.562;2024-03-06T00:18:54;10.77;;;9.67;;
27802;SDS011;15182;48.174;11.562;2024-03-06T00:21:24;10.43;;;9.17;;
27802;SDS011;15182;48.174;11.562;2024-03-06T00:23:51;9.90;;;8.90;;
27802;SDS011;15182;48.174;11.562;2024-03-06T00:26:19;11.50;;;9.83;;
27802;SDS011;15182;48.174;11.562;2024-03-06T00:28:47;10.53;;;9.27;;
27802;SDS011;15182;48.174;11.562;2024-03-06T00:31:15;10.67;;;9.30;;
27802;SDS011;15182;48.174;11.562;2024-03-06T00:33:43;9.30;;;8.50;;
27802;SDS011;15182;48.174;11.562;2024-03-06T00:36:11;10.20;;;9.10;;
27802;SDS011;15182;48.174;11.562;2024-03-06T00:38:41;10.60;;;9.43;;
27802;SDS011;15182;48.174;11.562;2024-03-06T00:41:09;11.17;;;9.83;;
27802;SDS011;15182;48.174;11.562;2024-03-06T00:43:37;10.13;;;9.20;;
27802;SDS011;15182;48.174;11.562;2024-03-06T00:46:05;9.77;;;8.80;;
27802;SDS011;15182;48.174;11.562;2024-03-06T00:48:33;10.00;;;9.00;;
27802;SDS011;15182;48.174;11.562;2024-03-06T00:51:01;9.83;;;8.87;;
27802;SDS011;15182;48.174;11.562;2024-03-06T00:53:29;11.80;;;9.20;;
27802;SDS011;15182;48.174;11.562;2024-03-06T00:55:58;10.67;;;9.13;;
27802;SDS011;15182;48.174;11.562;2024-03-06T00:58:26;9.87;;;8.97;;
27802;SDS011;15182;48.174;11.562;2024-03-06T01:00:54;9.60;;;8.70;;
27802;SDS011;15182;48.174;11.562;2024-03-06T01:03:24;8.83;;;8.10;;
27802;SDS011;15182;48.174;11.562;2024-03-06T01:05:52;9.60;;;8.70;;
27802;SDS011;15182;48.174;11.562;2024-03-06T01:08:21;10.07;;;9.07;;
27802;SDS011;15182;48.174;11.562;2024-03-06T01:10:50;10.00;;;9.00;;
27802;SDS011;15182;48.174;11.562;2024-03-06T01:13:20;10.47;;;9.47;;
27802;SDS011;15182;48.174;11.562;2024-03-06T01:15:48;10.10;;;9.00;;
27802;SDS011;15182;48.174;11.562;2024-03-06T01:18:16;10.50;;;9.43;;
27802;SDS011;15182;48.174;11.562;2024-03-06T01:20:44;9.53;;;8.73;;
27802;SDS011;15182;48.174;11.562;2024-03-06T01:23:12;9.73;;;8.77;;
27802;SDS011;15182;48.174;11.562;2024-03-06T01:25:40;9.87;;;8.90;;
27802;SDS011;15182;48.174;11.562;2024-03-06T01:28:08;10.43;;;9.43;;
27802;SDS011;15182;48.174;11.562;2024-03-06T01:30:37;9.93;;;9.07;;
27802;SDS011;15182;48.174;11.562;2024-03-06T01:33:05;10.90;;;9.80;;
27802;SDS011;15182;48.174;11.562;2024-03-06T01:35:33;10.80;;;9.63;;
27802;SDS011;15182;48.174;11.562;2024-03-06T01:38:01;14.93;;;10.83;;
27802;SDS011;15182;48.174;11.562;2024-03-06T01:40:29;14.17;;;10.50;;
27802;SDS011;15182;48.174;11.562;2024-03-06T01:42:57;12.13;;;10.87;;
27802;SDS011;15182;48.174;11.562;2024-03-06T01:45:27;12.23;;;10.13;;
27802;SDS011;15182;48.174;11.562;2024-03-06T01:47:56;14.60;;;10.13;;
27802;SDS011;15182;48.174;11.562;2024-03-06T01:50:24;12.60;;;10.17;;
27802;SDS011;15182;48.174;11.562;2024-03-06T01:52:52;14.67;;;11.37;;
27802;SDS011;15182;48.174;11.562;2024-03-06T01:55:20;12.83;;;10.23;;
27802;SDS011;15182;48.174;11.562;2024-03-06T01:57:49;13.80;;;11.00;;
27802;SDS011;15182;48.174;11.562;2024-03-06T02:00:17;15.53;;;11.60;;
27802;SDS011;15182;48.174;11.562;2024-03-06T02:02:46;14.27;;;11.23;;
27802;SDS011;15182;48.174;11.562;2024-03-06T02:05:16;14.10;;;11.63;;
27802;SDS011;15182;48.174;11.562;2024-03-06T02:07:44;15.90;;;11.97;;
27802;SDS011;15182;48.174;11.562;2024-03-06T02:10:13;15.70;;;11.03;;
27802;SDS011;15182;48.174;11.562;2024-03-06T02:12:40;14.13;;;11.77;;
27802;SDS011;15182;48.174;11.562;2024-03-06T02:15:09;17.47;;;12.17;;
27802;SDS011;15182;48.174;11.562;2024-03-06T02:17:38;14.27;;;12.03;;
27802;SDS011;15182;48.174;11.562;2024-03-06T02:20:08;16.07;;;11.73;;
27802;SDS011;15182;48.174;11.562;2024-03-06T02:22:39;17.47;;;12.17;;
27802;SDS011;15182;48.174;11.562;2024-03-06T02:25:07;14.57;;;11.87;;
27802;SDS011;15182;48.174;11.562;2024-03-06T02:27:35;15.97;;;12.10;;
27802;SDS011;15182;48.174;11.562;2024-03-06T02:30:04;15.03;;;11.73;;
27802;SDS011;15182;48.174;11.562;2024-03-06T02:32:33;16.13;;;11.70;;
27802;SDS011;15182;48.174;11.562;2024-03-06T02:35:01;13.80;;;11.23;;
27802;SDS011;15182;48.174;11.562;2024-03-06T02:37:34;17.87;;;12.17;;
27802;SDS011;15182;48.174;11.562;2024-03-06T02:40:04;15.03;;;11.53;;
27802;SDS011;15182;48.174;11.562;2024-03-06T02:42:35;15.80;;;12.03;;
27802;SDS011;15182;48.174;11.562;2024-03-06T02:45:05;14.47;;;10.83;;
27802;SDS011;15182;48.174;11.562;2024-03-06T02:47:34;14.83;;;11.10;;
27802;SDS011;15182;48.174;11.562;2024-03-06T02:50:02;14.63;;;11.40;;
27802;SDS011;15182;48.174;11.562;2024-03-06T02:52:31;16.63;;;11.67;;
27802;SDS011;15182;48.174;11.562;2024-03-06T02:54:59;14.13;;;11.47;;
27802;SDS011;15182;48.174;11.562;2024-03-06T02:57:28;14.77;;;12.03;;
27802;SDS011;15182;48.174;11.562;2024-03-06T02:59:56;15.03;;;11.17;;
27802;SDS011;15182;48.174;11.562;2024-03-06T03:02:25;15.70;;;11.47;;
27802;SDS011;15182;48.174;11.562;2024-03-06T03:04:53;14.97;;;10.73;;
27802;SDS011;15182;48.174;11.562;2024-03-06T03:07:20;16.20;;;11.63;;
27802;SDS011;15182;48.174;11.562;2024-03-06T03:09:49;13.90;;;11.03;;
27802;SDS011;15182;48.174;11.562;2024-03-06T03:12:17;14.47;;;10.77;;
27802;SDS011;15182;48.174;11.562;2024-03-06T03:14:47;14.33;;;10.70;;
27802;SDS011;15182;48.174;11.562;2024-03-06T03:17:16;15.47;;;10.63;;
27802;SDS011;15182;48.174;11.562;2024-03-06T03:19:46;13.60;;;10.30;;
27802;SDS011;15182;48.174;11.562;2024-03-06T03:22:14;15.80;;;11.27;;
27802;SDS011;15182;48.174;11.562;2024-03-06T03:24:42;13.23;;;10.17;;
27802;SDS011;15182;48.174;11.562;2024-03-06T03:27:10;15.63;;;10.43;;
27802;SDS011;15182;48.174;11.562;2024-03-06T03:29:38;13.17;;;10.73;;
27802;SDS011;15182;48.174;11.562;2024-03-06T03:32:07;15.07;;;11.43;;
27802;SDS011;15182;48.174;11.562;2024-03-06T03:34:35;15.17;;;10.87;;
27802;SDS011;15182;48.174;11.562;2024-03-06T03:37:03;14.90;;;11.10;;
27802;SDS011;15182;48.174;11.562;2024-03-06T03:39:31;13.97;;;11.10;;
27802;SDS011;15182;48.174;11.562;2024-03-06T03:41:59;16.90;;;11.00;;
27802;SDS011;15182;48.174;11.562;2024-03-06T03:44:27;15.07;;;11.10;;
27802;SDS011;15182;48.174;11.562;2024-03-06T03:46:54;14.33;;;10.53;;
27802;SDS011;15182;48.174;11.562;2024-03-06T03:49:24;14.20;;;10.87;;
27802;SDS011;15182;48.174;11.562;2024-03-06T03:51:52;12.80;;;9.53;;
27802;SDS011;15182;48.174;11.562;2024-03-06T03:54:20;16.03;;;10.47;;
27802;SDS011;15182;48.174;11.562;2024-03-06T03:56:48;15.90;;;10.77;;
27802;SDS011;15182;48.174;11.562;2024-03-06T03:59:16;12.90;;;10.20;;
27802;SDS011;15182;48.174;11.562;2024-03-06T04:01:44;13.80;;;10.20;;
27802;SDS011;15182;48.174;11.562;2024-03-06T04:04:13;15.77;;;10.67;;
27802;SDS011;15182;48.174;11.562;2024-03-06T04:06:42;15.83;;;10.80;;
27802;SDS011;15182;48.174;11.562;2024-03-06T04:09:11;13.37;;;10.40;;
27802;SDS011;15182;48.174;11.562;2024-03-06T04:11:40;15.27;;;10.70;;
27802;SDS011;15182;48.174;11.562;2024-03-06T04:14:08;12.43;;;10.00;;
27802;SDS011;15182;48.174;11.562;2024-03-06T04:16:36;14.00;;;10.63;;
27802;SDS011;15182;48.174;11.562;2024-03-06T04:19:04;12.87;;;10.17;;
27802;SDS011;15182;48.174;11.562;2024-03-06T04:21:32;11.60;;;9.77;;
27802;SDS011;15182;48.174;11.562;2024-03-06T04:24:01;15.20;;;11.37;;
27802;SDS011;15182;48.174;11.562;2024-03-06T04:26:29;14.90;;;10.70;;
27802;SDS011;15182;48.174;11.562;2024-03-06T04:28:57;20.43;;;12.27;;
27802;SDS011;15182;48.174;11.562;2024-03-06T04:31:25;15.97;;;11.23;;
27802;SDS011;15182;48.174;11.562;2024-03-06T04:33:53;14.23;;;10.73;;
27802;SDS011;15182;48.174;11.562;2024-03-06T04:36:21;17.47;;;11.43;;
27802;SDS011;15182;48.174;11.562;2024-03-06T04:38:49;17.27;;;11.40;;
27802;SDS011;15182;48.174;11.562;2024-03-06T04:41:19;16.00;;;10.73;;
27802;SDS011;15182;48.174;11.562;2024-03-06T04:43:47;16.07;;;11.27;;
27802;SDS011;15182;48.174;11.562;2024-03-06T04:46:16;14.70;;;10.70;;
27802;SDS011;15182;48.174;11.562;2024-03-06T04:48:44;15.13;;;10.93;;
27802;SDS011;15182;48.174;11.562;2024-03-06T04:51:14;17.30;;;10.83;;
27802;SDS011;15182;48.174;11.562;2024-03-06T04:53:42;17.43;;;11.27;;
27802;SDS011;15182;48.174;11.562;2024-03-06T04:56:10;16.07;;;11.07;;
27802;SDS011;15182;48.174;11.562;2024-03-06T04:58:40;16.80;;;11.17;;
27802;SDS011;15182;48.174;11.562;2024-03-06T05:01:08;19.93;;;12.17;;
27802;SDS011;15182;48.174;11.562;2024-03-06T05:03:36;12.77;;;11.00;;
27802;SDS011;15182;48.174;11.562;2024-03-06T05:06:04;17.60;;;11.47;;
27802;SDS011;15182;48.174;11.562;2024-03-06T05:08:33;16.10;;;10.87;;
27802;SDS011;15182;48.174;11.562;2024-03-06T05:11:00;14.97;;;11.50;;
27802;SDS011;15182;48.174;11.562;2024-03-06T05:13:29;15.37;;;10.47;;
27802;SDS011;15182;48.174;11.562;2024-03-06T05:15:58;21.57;;;11.53;;
27802;SDS011;15182;48.174;11.562;2024-03-06T05:18:26;17.60;;;10.50;;
27802;SDS011;15182;48.174;11.562;2024-03-06T05:20:54;17.07;;;11.33;;
27802;SDS011;15182;48.174;11.562;2024-03-06T05:23:22;13.47;;;10.60;;
27802;SDS011;15182;48.174;11.562;2024-03-06T05:25:50;15.37;;;10.50;;
27802;SDS011;15182;48.174;11.562;2024-03-06T05:28:17;14.40;;;10.53;;
27802;SDS011;15182;48.174;11.562;2024-03-06T05:30:45;13.40;;;10.03;;
27802;SDS011;15182;48.174;11.562;2024-03-06T05:33:15;14.80;;;10.77;;
27802;SDS011;15182;48.174;11.562;2024-03-06T05:35:43;15.33;;;10.63;;
27802;SDS011;15182;48.174;11.562;2024-03-06T05:38:10;12.93;;;9.23;;
27802;SDS011;15182;48.174;11.562;2024-03-06T05:40:38;9.80;;;8.20;;
27802;SDS011;15182;48.174;11.562;2024-03-06T05:43:10;8.37;;;7.27;;
27802;SDS011;15182;48.174;11.562;2024-03-06T05:45:39;7.20;;;6.63;;
27802;SDS011;15182;48.174;11.562;2024-03-06T05:48:07;6.83;;;6.20;;
27802;SDS011;15182;48.174;11.562;2024-03-06T05:50:36;6.63;;;6.13;;
27802;SDS011;15182;48.174;11.562;2024-03-06T05:53:05;7.00;;;5.47;;
27802;SDS011;15182;48.174;11.562;2024-03-06T05:55:32;5.23;;;5.03;;
27802;SDS011;15182;48.174;11.562;2024-03-06T05:58:00;4.83;;;4.67;;
27802;SDS011;15182;48.174;11.562;2024-03-06T06:00:28;5.20;;;5.00;;
27802;SDS011;15182;48.174;11.562;2024-03-06T06:02:56;4.90;;;4.70;;
27802;SDS011;15182;48.174;11.562;2024-03-06T06:05:24;5.07;;;4.80;;
27802;SDS011;15182;48.174;11.562;2024-03-06T06:07:53;4.87;;;4.67;;
27802;SDS011;15182;48.174;11.562;2024-03-06T06:10:21;4.67;;;4.50;;
27802;SDS011;15182;48.174;11.562;2024-03-06T06:12:49;4.27;;;4.17;;
27802;SDS011;15182;48.174;11.562;2024-03-06T06:15:18;4.73;;;4.60;;
27802;SDS011;15182;48.174;11.562;2024-03-06T06:17:46;4.97;;;4.87;;
27802;SDS011;15182;48.174;11.562;2024-03-06T06:20:14;4.70;;;4.30;;
27802;SDS011;15182;48.174;11.562;2024-03-06T06:22:43;5.03;;;4.93;;
27802;SDS011;15182;48.174;11.562;2024-03-06T06:25:13;4.63;;;4.40;;
27802;SDS011;15182;48.174;11.562;2024-03-06T06:27:42;5.17;;;4.97;;
27802;SDS011;15182;48.174;11.562;2024-03-06T06:30:10;5.20;;;4.93;;
27802;SDS011;15182;48.174;11.562;2024-03-06T06:32:39;4.27;;;4.17;;
27802;SDS011;15182;48.174;11.562;2024-03-06T06:35:08;4.20;;;4.10;;
27802;SDS011;15182;48.174;11.562;2024-03-06T06:37:37;4.97;;;4.83;;
27802;SDS011;15182;48.174;11.562;2024-03-06T06:40:05;4.80;;;4.60;;
27802;SDS011;15182;48.174;11.562;2024-03-06T06:42:37;5.00;;;4.57;;
27802;SDS011;15182;48.174;11.562;2024-03-06T06:45:05;5.13;;;4.83;;
27802;SDS011;15182;48.174;11.562;2024-03-06T06:47:35;4.83;;;4.73;;
27802;SDS011;15182;48.174;11.562;2024-03-06T06:50:03;4.87;;;4.67;;
27802;SDS011;15182;48.174;11.562;2024-03-06T06:52:32;4.83;;;4.47;;
27802;SDS011;15182;48.174;11.562;2024-03-06T06:55:00;5.33;;;4.43;;
27802;SDS011;15182;48.174;11.562;2024-03-06T06:57:28;4.63;;;4.53;;
27802;SDS011;15182;48.174;11.562;2024-03-06T06:59:58;4.60;;;4.50;;
27802;SDS011;15182;48.174;11.562;2024-03-06T07:02:26;4.90;;;4.80;;
27802;SDS011;15182;48.174;11.562;2024-03-06T07:04:54;4.70;;;4.60;;
27802;SDS011;15182;48.174;11.562;2024-03-06T07:07:21;5.37;;;5.17;;
27802;SDS011;15182;48.174;11.562;2024-03-06T07:09:49;5.50;;;5.27;;
27802;SDS011;15182;48.174;11.562;2024-03-06T07:12:17;4.80;;;4.70;;
27802;SDS011;15182;48.174;11.562;2024-03-06T07:14:45;4.67;;;4.50;;
27802;SDS011;15182;48.174;11.562;2024-03-06T07:17:15;5.40;;;5.20;;
27802;SDS011;15182;48.174;11.562;2024-03-06T07:19:43;4.77;;;4.67;;
27802;SDS011;15182;48.174;11.562;2024-03-06T07:22:10;5.63;;;5.33;;
27802;SDS011;15182;48.174;11.562;2024-03-06T07:24:38;5.00;;;4.70;;
27802;SDS011;15182;48.174;11.562;2024-03-06T07:27:07;5.60;;;5.27;;
27802;SDS011;15182;48.174;11.562;2024-03-06T07:29:35;5.20;;;5.10;;
27802;SDS011;15182;48.174;11.562;2024-03-06T07:32:03;5.17;;;4.97;;
27802;SDS011;15182;48.174;11.562;2024-03-06T07:34:33;4.93;;;4.77;;
27802;SDS011;15182;48.174;11.562;2024-03-06T07:37:01;5.50;;;5.30;;
27802;SDS011;15182;48.174;11.562;2024-03-06T07:39:30;4.43;;;4.33;;
27802;SDS011;15182;48.174;11.562;2024-03-06T07:41:58;7.37;;;6.07;;
27802;SDS011;15182;48.174;11.562;2024-03-06T07:44:26;5.83;;;5.30;;
27802;SDS011;15182;48.174;11.562;2024-03-06T07:46:54;8.30;;;5.53;;
27802;SDS011;15182;48.174;11.562;2024-03-06T07:49:21;6.40;;;5.47;;
27802;SDS011;15182;48.174;11.562;2024-03-06T07:51:51;4.90;;;4.80;;
27802;SDS011;15182;48.174;11.562;2024-03-06T07:54:19;5.00;;;4.80;;
27802;SDS011;15182;48.174;11.562;2024-03-06T07:56:47;4.33;;;4.23;;
27802;SDS011;15182;48.174;11.562;2024-03-06T07:59:15;4.57;;;4.47;;
27802;SDS011;15182;48.174;11.562;2024-03-06T08:01:44;5.23;;;4.87;;
27802;SDS011;15182;48.174;11.562;2024-03-06T08:04:12;4.87;;;4.63;;
27802;SDS011;15182;48.174;11.562;2024-03-06T08:06:41;4.80;;;4.40;;
27802;SDS011;15182;48.174;11.562;2024-03-06T08:09:10;4.47;;;4.30;;
27802;SDS011;15182;48.174;11.562;2024-03-06T08:11:38;5.20;;;5.00;;
27802;SDS011;15182;48.174;11.562;2024-03-06T08:14:06;4.20;;;4.10;;
27802;SDS011;15182;48.174;11.562;2024-03-06T08:16:34;4.83;;;4.73;;
27802;SDS011;15182;48.174;11.562;2024-03-06T08:19:03;4.40;;;4.30;;
27802;SDS011;15182;48.174;11.562;2024-03-06T08:21:31;4.37;;;4.27;;
27802;SDS011;15182;48.174;11.562;2024-03-06T08:23:59;4.40;;;4.30;;
27802;SDS011;15182;48.174;11.562;2024-03-06T08:26:28;4.70;;;4.60;;
27802;SDS011;15182;48.174;11.562;2024-03-06T08:28:56;4.50;;;4.30;;
27802;SDS011;15182;48.174;11.562;2024-03-06T08:31:24;5.70;;;4.33;;
27802;SDS011;15182;48.174;11.562;2024-03-06T08:33:52;4.57;;;4.47;;
27802;SDS011;15182;48.174;11.562;2024-03-06T08:36:20;5.40;;;5.13;;
27802;SDS011;15182;48.174;11.562;2024-03-06T08:38:50;5.00;;;4.70;;
27802;SDS011;15182;48.174;11.562;2024-03-06T08:41:18;5.27;;;5.03;;
27802;SDS011;15182;48.174;11.562;2024-03-06T08:43:47;4.53;;;4.40;;
27802;SDS011;15182;48.174;11.562;2024-03-06T08:46:15;5.20;;;5.00;;
27802;SDS011;15182;48.174;11.562;2024-03-06T08:48:43;5.57;;;5.37;;
27802;SDS011;15182;48.174;11.562;2024-03-06T08:51:12;5.30;;;5.00;;
27802;SDS011;15182;48.174;11.562;2024-03-06T08:53:40;4.77;;;4.60;;
27802;SDS011;15182;48.174;11.562;2024-03-06T08:56:08;7.17;;;5.70;;
27802;SDS011;15182;48.174;11.562;2024-03-06T08:58:36;5.47;;;5.27;;
27802;SDS011;15182;48.174;11.562;2024-03-06T09:01:13;5.83;;;5.30;;
27802;SDS011;15182;48.174;11.562;2024-03-06T09:03:41;7.47;;;6.97;;
27802;SDS011;15182;48.174;11.562;2024-03-06T09:06:09;6.13;;;5.73;;
27802;SDS011;15182;48.174;11.562;2024-03-06T09:08:38;5.77;;;5.23;;
27802;SDS011;15182;48.174;11.562;2024-03-06T09:11:06;6.23;;;5.63;;
27802;SDS011;15182;48.174;11.562;2024-03-06T09:13:34;8.60;;;5.43;;
27802;SDS011;15182;48.174;11.562;2024-03-06T09:16:02;6.13;;;5.53;;
27802;SDS011;15182;48.174;11.562;2024-03-06T09:18:32;5.33;;;4.93;;
27802;SDS011;15182;48.174;11.562;2024-03-06T09:21:00;7.07;;;6.40;;
27802;SDS011;15182;48.174;11.562;2024-03-06T09:23:28;5.70;;;5.30;;
27802;SDS011;15182;48.174;11.562;2024-03-06T09:25:58;5.17;;;4.97;;
27802;SDS011;15182;48.174;11.562;2024-03-06T09:28:26;5.20;;;4.90;;
27802;SDS011;15182;48.174;11.562;2024-03-06T09:30:54;6.50;;;5.90;;
27802;SDS011;15182;48.174;11.562;2024-03-06T09:33:23;5.83;;;5.53;;
27802;SDS011;15182;48.174;11.562;2024-03-06T09:35:52;5.63;;;5.33;;
27802;SDS011;15182;48.174;11.562;2024-03-06T09:38:21;5.00;;;4.80;;
27802;SDS011;15182;48.174;11.562;2024-03-06T09:40:49;6.27;;;5.97;;
27802;SDS011;15182;48.174;11.562;2024-03-06T09:43:18;5.40;;;5.10;;
27802;SDS011;15182;48.174;11.562;2024-03-06T09:45:46;4.67;;;4.57;;
27802;SDS011;15182;48.174;11.562;2024-03-06T09:48:18;5.27;;;4.90;;
27802;SDS011;15182;48.174;11.562;2024-03-06T09:50:48;5.73;;;5.50;;
27802;SDS011;15182;48.174;11.562;2024-03-06T09:53:18;6.00;;;5.60;;
27802;SDS011;15182;48.174;11.562;2024-03-06T09:55:48;7.43;;;6.83;;
27802;SDS011;15182;48.174;11.562;2024-03-06T09:58:17;7.20;;;5.60;;
27802;SDS011;15182;48.174;11.562;2024-03-06T10:00:46;5.90;;;5.40;;
27802;SDS011;15182;48.174;11.562;2024-03-06T10:03:15;5.80;;;5.40;;
27802;SDS011;15182;48.174;11.562;2024-03-06T10:05:44;4.53;;;4.33;;
27802;SDS011;15182;48.174;11.562;2024-03-06T10:08:12;5.73;;;5.47;;
27802;SDS011;15182;48.174;11.562;2024-03-06T10:10:43;5.77;;;5.47;;
27802;SDS011;15182;48.174;11.562;2024-03-06T10:13:12;6.30;;;5.73;;
27802;SDS011;15182;48.174;11.562;2024-03-06T10:15:48;7.77;;;5.93;;
27802;SDS011;15182;48.174;11.562;2024-03-06T10:18:26;6.17;;;5.63;;
27802;SDS011;15182;48.174;11.562;2024-03-06T10:20:54;7.10;;;6.50;;
27802;SDS011;15182;48.174;11.562;2024-03-06T10:23:22;5.87;;;5.63;;
27802;SDS011;15182;48.174;11.562;2024-03-06T10:25:52;7.87;;;7.13;;
27802;SDS011;15182;48.174;11.562;2024-03-06T10:28:20;8.43;;;7.50;;
27802;SDS011;15182;48.174;11.562;2024-03-06T10:30:50;8.40;;;7.67;;
27802;SDS011;15182;48.174;11.562;2024-03-06T10:33:19;7.87;;;7.17;;
27802;SDS011;15182;48.174;11.562;2024-03-06T10:35:47;9.20;;;8.13;;
27802;SDS011;15182;48.174;11.562;2024-03-06T10:38:15;12.77;;;8.93;;
27802;SDS011;15182;48.174;11.562;2024-03-06T10:40:43;8.60;;;7.80;;
27802;SDS011;15182;48.174;11.562;2024-03-06T10:43:14;8.07;;;7.37;;
27802;SDS011;15182;48.174;11.562;2024-03-06T10:45:44;8.20;;;7.50;;
27802;SDS011;15182;48.174;11.562;2024-03-06T10:48:15;7.40;;;6.80;;
27802;SDS011;15182;48.174;11.562;2024-03-06T10:50:45;7.67;;;7.00;;
27802;SDS011;15182;48.174;11.562;2024-03-06T10:53:14;7.30;;;6.73;;
27802;SDS011;15182;48.174;11.562;2024-03-06T10:55:44;7.10;;;6.60;;
27802;SDS011;15182;48.174;11.562;2024-03-06T10:58:14;7.60;;;6.53;;
27802;SDS011;15182;48.174;11.562;2024-03-06T11:00:45;7.67;;;6.00;;
27802;SDS011;15182;48.174;11.562;2024-03-06T11:03:15;90.07;;;32.37;;
27802;SDS011;15182;48.174;11.562;2024-03-06T11:05:44;43.00;;;19.67;;
27802;SDS011;15182;48.174;11.562;2024-03-06T11:08:13;22.23;;;13.30;;
27802;SDS011;15182;48.174;11.562;2024-03-06T11:10:43;19.20;;;10.87;;
27802;SDS011;15182;48.174;11.562;2024-03-06T11:13:22;11.73;;;8.80;;
27802;SDS011;15182;48.174;11.562;2024-03-06T11:15:52;9.27;;;8.30;;
27802;SDS011;15182;48.174;11.562;2024-03-06T11:21:29;9.33;;;7.43;;
27802;SDS011;15182;48.174;11.562;2024-03-06T11:24:17;7.90;;;7.13;;
27802;SDS011;15182;48.174;11.562;2024-03-06T11:26:47;8.77;;;7.93;;
27802;SDS011;15182;48.174;11.562;2024-03-06T11:29:28;8.83;;;7.97;;
27802;SDS011;15182;48.174;11.562;2024-03-06T11:32:37;8.10;;;7.10;;
27802;SDS011;15182;48.174;11.562;2024-03-06T11:35:05;8.20;;;7.40;;
27802;SDS011;15182;48.174;11.562;2024-03-06T11:37:34;7.80;;;7.30;;
27802;SDS011;15182;48.174;11.562;2024-03-06T11:40:04;10.07;;;8.90;;
27802;SDS011;15182;48.174;11.562;2024-03-06T11:42:37;8.80;;;8.03;;
27802;SDS011;15182;48.174;11.562;2024-03-06T11:45:17;8.07;;;7.47;;
27802;SDS011;15182;48.174;11.562;2024-03-06T11:47:57;7.67;;;7.07;;
27802;SDS011;15182;48.174;11.562;2024-03-06T11:50:27;7.50;;;7.00;;
27802;SDS011;15182;48.174;11.562;2024-03-06T11:52:57;7.80;;;7.20;;
27802;SDS011;15182;48.174;11.562;2024-03-06T11:55:25;7.67;;;6.97;;
27802;SDS011;15182;48.174;11.562;2024-03-06T11:57:53;8.87;;;7.97;;
27802;SDS011;15182;48.174;11.562;2024-03-06T12:00:23;7.93;;;7.23;;
27802;SDS011;15182;48.174;11.562;2024-03-06T12:02:51;8.37;;;7.57;;
27802;SDS011;15182;48.174;11.562;2024-03-06T12:05:19;32.73;;;16.03;;
27802;SDS011;15182;48.174;11.562;2024-03-06T12:07:47;28.23;;;14.27;;
27802;SDS011;15182;48.174;11.562;2024-03-06T12:10:16;17.43;;;12.00;;
27802;SDS011;15182;48.174;11.562;2024-03-06T12:12:45;14.50;;;10.13;;
27802;SDS011;15182;48.174;11.562;2024-03-06T12:15:14;13.63;;;9.70;;
27802;SDS011;15182;48.174;11.562;2024-03-06T12:17:46;9.90;;;8.20;;
27802;SDS011;15182;48.174;11.562;2024-03-06T12:20:16;9.13;;;8.30;;
27802;SDS011;15182;48.174;11.562;2024-03-06T12:22:44;8.10;;;7.30;;
27802;SDS011;15182;48.174;11.562;2024-03-06T12:25:18;12.97;;;7.87;;
27802;SDS011;15182;48.174;11.562;2024-03-06T12:27:48;11.13;;;7.50;;
27802;SDS011;15182;48.174;11.562;2024-03-06T12:30:18;10.17;;;8.43;;
27802;SDS011;15182;48.174;11.562;2024-03-06T12:32:57;8.47;;;7.73;;
27802;SDS011;15182;48.174;11.562;2024-03-06T12:35:25;8.60;;;7.70;;
27802;SDS011;15182;48.174;11.562;2024-03-06T12:37:53;10.73;;;8.17;;
27802;SDS011;15182;48.174;11.562;2024-03-06T12:40:22;9.13;;;7.70;;
27802;SDS011;15182;48.174;11.562;2024-03-06T12:42:50;9.00;;;8.10;;
27802;SDS011;15182;48.174;11.562;2024-03-06T12:45:19;9.13;;;7.97;;
27802;SDS011;15182;48.174;11.562;2024-03-06T12:47:47;8.43;;;7.50;;
27802;SDS011;15182;48.174;11.562;2024-03-06T12:50:16;8.97;;;8.07;;
27802;SDS011;15182;48.174;11.562;2024-03-06T12:52:44;9.80;;;8.10;;
27802;SDS011;15182;48.174;11.562;2024-03-06T12:55:12;8.47;;;7.60;;
27802;SDS011;15182;48.174;11.562;2024-03-06T12:57:40;8.77;;;7.87;;
27802;SDS011;15182;48.174;11.562;2024-03-06T13:00:09;8.80;;;7.97;;
27802;SDS011;15182;48.174;11.562;2024-03-06T13:02:41;9.17;;;7.53;;
27802;SDS011;15182;48.174;11.562;2024-03-06T13:05:10;8.47;;;7.63;;
27802;SDS011;15182;48.174;11.562;2024-03-06T13:07:41;8.20;;;7.40;;
27802;SDS011;15182;48.174;11.562;2024-03-06T13:10:10;7.47;;;6.80;;
27802;SDS011;15182;48.174;11.562;2024-03-06T13:12:38;9.13;;;7.90;;
27802;SDS011;15182;48.174;11.562;2024-03-06T13:15:06;9.30;;;7.57;;
27802;SDS011;15182;48.174;11.562;2024-03-06T13:17:35;8.40;;;7.43;;
27802;SDS011;15182;48.174;11.562;2024-03-06T13:20:03;9.90;;;7.37;;
27802;SDS011;15182;48.174;11.562;2024-03-06T13:22:35;8.87;;;8.00;;
27802;SDS011;15182;48.174;11.562;2024-03-06T13:25:04;8.43;;;7.53;;
27802;SDS011;15182;48.174;11.562;2024-03-06T13:27:34;8.10;;;7.40;;
27802;SDS011;15182;48.174;11.562;2024-03-06T13:30:02;10.60;;;8.37;;
27802;SDS011;15182;48.174;11.562;2024-03-06T13:32:33;11.37;;;8.20;;
27802;SDS011;15182;48.174;11.562;2024-03-06T13:35:01;11.97;;;8.30;;
27802;SDS011;15182;48.174;11.562;2024-03-06T13:37:32;9.07;;;8.10;;
27802;SDS011;15182;48.174;11.562;2024-03-06T13:40:00;11.03;;;8.23;;
27802;SDS011;15182;48.174;11.562;2024-03-06T13:42:30;9.50;;;8.03;;
27802;SDS011;15182;48.174;11.562;2024-03-06T13:44:58;7.37;;;6.87;;
27802;SDS011;15182;48.174;11.562;2024-03-06T13:47:26;8.50;;;7.80;;
27802;SDS011;15182;48.174;11.562;2024-03-06T13:49:54;8.40;;;7.67;;
27802;SDS011;15182;48.174;11.562;2024-03-06T13:52:22;8.63;;;7.33;;
27802;SDS011;15182;48.174;11.562;2024-03-06T13:54:51;8.13;;;7.20;;
27802;SDS011;15182;48.174;11.562;2024-03-06T13:57:19;8.83;;;7.97;;
27802;SDS011;15182;48.174;11.562;2024-03-06T13:59:48;9.37;;;7.90;;
27802;SDS011;15182;48.174;11.562;2024-03-06T14:02:16;6.90;;;6.30;;
27802;SDS011;15182;48.174;11.562;2024-03-06T14:04:44;8.63;;;7.53;;
27802;SDS011;15182;48.174;11.562;2024-03-06T14:07:12;7.17;;;6.53;;
27802;SDS011;15182;48.174;11.562;2024-03-06T14:09:40;7.30;;;6.60;;
27802;SDS011;15182;48.174;11.562;2024-03-06T14:12:08;9.53;;;6.20;;
27802;SDS011;15182;48.174;11.562;2024-03-06T14:14:36;7.20;;;6.60;;
27802;SDS011;15182;48.174;11.562;2024-03-06T14:17:05;6.43;;;5.93;;
27802;SDS011;15182;48.174;11.562;2024-03-06T14:19:33;6.23;;;5.93;;
27802;SDS011;15182;48.174;11.562;2024-03-06T14:22:01;6.30;;;5.90;;
27802;SDS011;15182;48.174;11.562;2024-03-06T14:24:28;5.60;;;5.30;;
27802;SDS011;15182;48.174;11.562;2024-03-06T14:26:57;5.90;;;5.50;;
27802;SDS011;15182;48.174;11.562;2024-03-06T14:29:24;7.67;;;5.60;;
27802;SDS011;15182;48.174;11.562;2024-03-06T14:31:53;6.20;;;5.80;;
27802;SDS011;15182;48.174;11.562;2024-03-06T14:34:23;5.37;;;5.10;;
27802;SDS011;15182;48.174;11.562;2024-03-06T14:36:51;5.17;;;4.70;;
27802;SDS011;15182;48.174;11.562;2024-03-06T14:39:19;5.33;;;5.03;;